Time;durP1;ratioP1;P1;durP2;ratioP2;P2;SDS_P1;SDS_P2;PMS_P1;PMS_P2;Temp;Humidity;BMP_temperature;BMP_pressure;BME280_temperature;BME280_humidity;BME280_pressure;Samples;Min_cycle;Max_cycle;Signal;HPM_P1;HPM_P2
2022/07/22 00:03:40;;;;;;;8.90;6.13;;;;;;;24.08;44.24;98280.75;8314868;28;20225;-76
2022/07/22 00:07:43;;;;;;;9.27;6.07;;;;;;;24.14;44.22;98277.50;8315486;28;20236;-76
2022/07/22 00:11:47;;;;;;;9.33;6.50;;;;;;;24.01;44.49;98277.88;8323130;28;20248;-76
2022/07/22 00:15:51;;;;;;;9.73;6.27;;;;;;;23.99;44.37;98277.19;8315147;28;20402;-77
2022/07/22 00:19:55;;;;;;;7.00;5.90;;;;;;;24.07;44.52;98279.91;8314845;28;20236;-76
2022/07/22 00:23:58;;;;;;;10.97;6.17;;;;;;;23.95;44.89;98281.94;8314960;28;20238;-76
2022/07/22 00:28:00;;;;;;;8.50;6.40;;;;;;;23.96;44.88;98282.75;8314845;28;20431;-78
2022/07/22 00:32:05;;;;;;;11.73;6.53;;;;;;;23.88;45.14;98291.41;8314945;28;20304;-76
2022/07/22 00:36:09;;;;;;;9.27;6.03;;;;;;;23.84;44.99;98281.25;8315022;28;20231;-76
2022/07/22 00:40:13;;;;;;;7.67;6.40;;;;;;;23.86;45.11;98281.97;8314336;28;20383;-76
2022/07/22 00:44:16;;;;;;;8.37;6.40;;;;;;;23.79;45.40;98286.97;8314835;28;20236;-76
2022/07/22 00:48:20;;;;;;;9.97;6.10;;;;;;;23.75;45.59;98288.22;8314607;28;20236;-77
2022/07/22 00:52:23;;;;;;;8.50;6.40;;;;;;;23.77;45.47;98281.78;8315038;28;20508;-77
2022/07/22 00:56:26;;;;;;;11.13;6.57;;;;;;;23.62;45.64;98285.88;8314632;28;20235;-77
2022/07/22 01:00:29;;;;;;;8.03;6.10;;;;;;;23.66;45.73;98281.16;8314563;28;20250;-77
2022/07/22 01:04:34;;;;;;;8.60;6.70;;;;;;;23.59;45.80;98281.72;8314453;28;20466;-77
2022/07/22 01:08:38;;;;;;;8.23;6.53;;;;;;;23.55;45.36;98283.00;8314518;28;20303;-76
2022/07/22 01:12:41;;;;;;;8.67;7.27;;;;;;;23.50;45.60;98282.56;8314539;28;20239;-77
2022/07/22 01:16:44;;;;;;;8.17;6.87;;;;;;;23.52;45.45;98275.34;8313909;28;20243;-77
2022/07/22 01:20:52;;;;;;;9.23;7.30;;;;;;;23.44;45.72;98277.88;8313569;28;20334;-76
2022/07/22 01:24:55;;;;;;;9.43;7.30;;;;;;;23.38;46.06;98281.03;8314038;28;20232;-76
2022/07/22 01:28:58;;;;;;;7.93;6.97;;;;;;;23.28;46.22;98283.72;8313816;28;20236;-77
2022/07/22 01:33:02;;;;;;;7.13;6.43;;;;;;;23.29;46.24;98276.63;8313915;28;20237;-76
2022/07/22 01:37:07;;;;;;;8.33;7.03;;;;;;;23.19;46.37;98282.75;8313913;28;20523;-76
2022/07/22 01:41:10;;;;;;;8.43;7.37;;;;;;;23.12;46.34;98275.53;8313760;28;20511;-76
2022/07/22 01:45:13;;;;;;;10.17;7.10;;;;;;;23.10;46.40;98278.31;8313883;28;20237;-76
2022/07/22 01:49:17;;;;;;;8.47;6.83;;;;;;;23.07;46.50;98273.28;8313683;28;20239;-77
2022/07/22 01:53:21;;;;;;;9.40;7.60;;;;;;;23.07;46.60;98283.03;8316419;28;20232;-76
2022/07/22 01:57:24;;;;;;;8.87;7.80;;;;;;;23.05;46.69;98283.16;8319378;28;20426;-77
2022/07/22 02:01:27;;;;;;;12.27;7.47;;;;;;;;;;8319186;28;20232;-77
2022/07/22 02:05:30;;;;;;;9.83;7.67;;;;;;;23.00;46.98;98290.66;8319323;28;20229;-77
2022/07/22 02:09:34;;;;;;;8.40;7.43;;;;;;;22.92;46.96;98285.22;8319209;28;20240;-76
2022/07/22 02:13:37;;;;;;;8.20;7.40;;;;;;;22.83;47.31;98287.72;8318978;28;20232;-77
2022/07/22 02:17:40;;;;;;;9.77;7.70;;;;;;;22.86;47.21;98278.69;8318912;28;20255;-77
2022/07/22 02:21:43;;;;;;;10.30;7.43;;;;;;;22.77;47.11;98283.00;8318244;28;20295;-76
2022/07/22 02:25:47;;;;;;;11.80;7.67;;;;;;;22.72;47.30;98285.22;8318753;28;20540;-77
2022/07/22 02:29:50;;;;;;;9.67;7.07;;;;;;;22.72;47.71;98274.66;8317899;28;20233;-76
2022/07/22 02:33:53;;;;;;;7.67;6.93;;;;;;;22.61;47.78;98274.78;8318278;28;20233;-76
2022/07/22 02:37:59;;;;;;;9.23;7.20;;;;;;;22.52;47.98;98279.06;8318267;28;20283;-76
2022/07/22 02:42:05;;;;;;;12.37;7.43;;;;;;;22.56;47.70;98276.97;8317963;28;20264;-77
2022/07/22 02:46:08;;;;;;;8.83;7.47;;;;;;;22.51;47.99;98276.56;8318010;28;20220;-76
2022/07/22 02:50:12;;;;;;;10.57;7.60;;;;;;;22.50;48.19;98273.06;8317701;28;20239;-77
2022/07/22 02:54:15;;;;;;;10.50;7.83;;;;;;;22.45;48.10;98268.22;8317665;28;20238;-76
2022/07/22 02:58:20;;;;;;;10.20;7.60;;;;;;;22.45;48.32;98277.94;8317676;28;20240;-76
2022/07/22 03:02:23;;;;;;;11.80;8.00;;;;;;;22.36;48.58;98276.94;8317611;28;20252;-77
2022/07/22 03:06:26;;;;;;;11.03;7.63;;;;;;;22.30;48.55;98274.84;8316717;28;20335;-76
2022/07/22 03:10:29;;;;;;;11.70;8.03;;;;;;;22.32;48.51;98277.38;8317249;28;20234;-77
2022/07/22 03:14:33;;;;;;;8.63;7.70;;;;;;;22.25;48.70;98272.59;8317198;28;20345;-77
2022/07/22 03:18:36;;;;;;;10.37;8.40;;;;;;;22.18;49.15;98278.50;8316368;28;20235;-76
2022/07/22 03:22:39;;;;;;;10.90;7.90;;;;;;;22.21;49.04;98270.34;8316574;28;20233;-76
2022/07/22 03:26:42;;;;;;;10.27;7.87;;;;;;;22.17;49.73;98269.78;8316862;28;20225;-76
2022/07/22 03:30:47;;;;;;;8.97;8.07;;;;;;;22.23;49.42;98269.22;8316471;28;20239;-76
2022/07/22 03:34:49;;;;;;;10.37;8.07;;;;;;;22.11;49.73;98280.88;8324095;28;20579;-76
2022/07/22 03:38:52;;;;;;;8.97;8.00;;;;;;;22.10;49.67;98286.28;8316166;28;20237;-76
2022/07/22 03:42:56;;;;;;;10.47;8.33;;;;;;;22.08;49.87;98281.13;8316168;28;20237;-76
2022/07/22 03:47:00;;;;;;;9.47;8.40;;;;;;;22.06;50.05;98289.16;8316103;28;20246;-76
2022/07/22 03:51:04;;;;;;;10.50;8.47;;;;;;;22.10;49.80;98288.91;8316027;28;20232;-76
2022/07/22 03:55:08;;;;;;;12.63;8.17;;;;;;;22.09;49.61;98292.53;8315723;28;20229;-76
2022/07/22 03:59:11;;;;;;;10.50;8.33;;;;;;;22.00;49.99;98292.34;8315929;28;20237;-76
2022/07/22 04:03:15;;;;;;;9.47;8.33;;;;;;;22.02;49.77;98287.75;8315796;28;20233;-76
2022/07/22 04:07:18;;;;;;;12.57;9.10;;;;;;;21.97;49.97;98289.97;8315853;28;20466;-77
2022/07/22 04:11:21;;;;;;;15.33;9.57;;;;;;;22.03;50.06;98291.25;8315585;28;20262;-76
2022/07/22 04:15:24;;;;;;;12.23;9.63;;;;;;;22.01;50.29;98293.19;8315628;28;20226;-77
2022/07/22 04:19:29;;;;;;;8.53;7.23;;;;;;;22.69;51.03;98295.22;8314591;28;20238;-76
2022/07/22 04:23:32;;;;;;;7.73;6.80;;;;;;;23.22;49.41;98293.03;8315038;28;20335;-76
2022/07/22 04:27:35;;;;;;;9.17;6.90;;;;;;;23.55;48.37;98295.34;8315143;28;20400;-76
2022/07/22 04:31:37;;;;;;;8.23;7.37;;;;;;;23.77;47.41;98286.25;8314775;28;20231;-76
2022/07/22 04:35:43;;;;;;;9.00;7.20;;;;;;;23.91;46.88;98288.50;8314668;28;20247;-76
2022/07/22 04:39:46;;;;;;;8.30;7.20;;;;;;;23.93;46.84;98283.88;8314407;28;20259;-77
2022/07/22 04:43:49;;;;;;;9.00;7.27;;;;;;;24.11;46.66;98283.94;8313702;28;20233;-76
2022/07/22 04:47:52;;;;;;;11.30;7.20;;;;;;;24.19;46.54;98281.38;8314217;28;20439;-76
2022/07/22 04:51:56;;;;;;;8.83;7.40;;;;;;;24.26;46.56;98278.16;8314548;28;20243;-78
2022/07/22 04:55:59;;;;;;;9.57;7.57;;;;;;;24.25;45.97;98287.91;8314428;28;20423;-77
2022/07/22 05:00:03;;;;;;;8.83;7.13;;;;;;;24.31;45.84;98283.84;8313969;28;20433;-78
2022/07/22 05:04:06;;;;;;;10.23;8.00;;;;;;;24.38;45.90;98277.81;8314345;28;20608;-76
2022/07/22 05:08:11;;;;;;;13.30;7.87;;;;;;;24.28;46.39;98287.63;8314312;28;20228;-76
2022/07/22 05:12:14;;;;;;;12.37;7.90;;;;;;;24.39;46.18;98284.78;8314346;28;20511;-77
2022/07/22 05:16:17;;;;;;;9.40;7.50;;;;;;;24.50;46.29;98278.44;8314082;28;20231;-76
2022/07/22 05:20:20;;;;;;;15.33;8.30;;;;;;;24.54;45.75;98285.16;8313926;28;20240;-76
2022/07/22 05:24:25;;;;;;;13.50;8.70;;;;;;;24.52;46.02;98289.75;8314150;28;20228;-77
2022/07/22 05:28:27;;;;;;;13.53;10.40;;;;;;;24.11;47.23;98289.22;8316888;28;20518;-79
2022/07/22 05:32:30;;;;;;;14.90;10.20;;;;;;;23.76;48.57;98282.78;8320088;28;20242;-81
2022/07/22 05:36:34;;;;;;;13.97;10.30;;;;;;;23.60;49.28;98282.53;8319907;28;20228;-77
2022/07/22 05:40:39;;;;;;;11.97;9.27;;;;;;;23.70;49.48;98280.69;8319789;28;20604;-77
2022/07/22 05:44:41;;;;;;;14.33;10.77;;;;;;;23.59;49.90;98288.81;8319416;28;20232;-77
2022/07/22 05:48:44;;;;;;;15.50;9.73;;;;;;;23.60;49.98;98278.09;8319533;28;20232;-77
2022/07/22 05:52:47;;;;;;;12.10;9.77;;;;;;;23.64;50.09;98283.09;8335144;28;20563;-77
2022/07/22 05:56:51;;;;;;;13.17;9.33;;;;;;;23.78;49.76;98290.59;8318908;28;20235;-77
2022/07/22 06:00:55;;;;;;;10.73;8.17;;;;;;;23.85;49.97;98290.84;8319108;28;20232;-79
2022/07/22 06:05:00;;;;;;;11.70;9.50;;;;;;;23.93;50.02;98297.09;8319081;28;20492;-78
2022/07/22 06:09:05;;;;;;;8.93;8.03;;;;;;;23.98;50.21;98296.66;8318894;28;20252;-78
2022/07/22 06:13:09;;;;;;;12.10;8.37;;;;;;;24.08;49.97;98294.78;8318840;28;20237;-79
2022/07/22 06:17:12;;;;;;;11.40;8.73;;;;;;;24.17;50.27;98301.88;8318701;28;20299;-78
2022/07/22 06:21:15;;;;;;;10.53;9.00;;;;;;;24.24;50.28;98296.84;8318785;28;20233;-77
2022/07/22 06:25:18;;;;;;;9.67;7.83;;;;;;;24.38;50.01;98296.31;8318598;28;20298;-78
2022/07/22 06:29:42;;;;;;;9.63;7.63;;;;;;;24.47;49.86;98293.78;8318677;28;20238;-78
2022/07/22 06:33:46;;;;;;;8.33;7.40;;;;;;;24.62;48.87;98294.13;8318109;28;20571;-78
2022/07/22 06:37:49;;;;;;;8.90;7.70;;;;;;;24.72;48.62;98306.34;8324884;28;20324;-78
2022/07/22 06:42:10;;;;;;;9.70;6.80;;;;;;;24.88;48.39;98297.72;8317279;28;20241;-78
2022/07/22 06:46:16;;;;;;;9.70;7.10;;;;;;;24.95;48.45;98296.13;8317624;28;20237;-78
2022/07/22 06:50:19;;;;;;;10.57;7.43;;;;;;;25.14;47.78;98303.09;8317613;28;20535;-77
2022/07/22 06:54:22;;;;;;;8.33;6.90;;;;;;;25.26;47.59;98305.53;8317563;28;20221;-78
2022/07/22 06:58:25;;;;;;;12.33;7.07;;;;;;;25.47;46.72;98298.06;8317569;28;20303;-78
2022/07/22 07:02:33;;;;;;;7.57;6.50;;;;;;;25.61;46.77;98295.84;8317302;28;20233;-78
2022/07/22 07:06:36;;;;;;;10.63;7.07;;;;;;;25.72;45.92;98296.44;8317161;28;20333;-78
2022/07/22 07:10:39;;;;;;;7.33;6.63;;;;;;;26.05;45.67;98295.81;8317462;28;20298;-77
2022/07/22 07:14:41;;;;;;;11.80;6.70;;;;;;;26.09;45.47;98291.84;8317307;28;20566;-77
2022/07/22 07:19:07;;;;;;;9.03;5.83;;;;;;;26.38;44.25;98285.34;8316194;28;20237;-78
2022/07/22 07:23:10;;;;;;;8.07;5.83;;;;;;;26.46;42.92;98285.34;8316936;28;20226;-78
2022/07/22 07:27:14;;;;;;;8.67;5.43;;;;;;;26.72;42.84;98283.44;8316825;28;20230;-78
2022/07/22 07:31:18;;;;;;;9.13;5.70;;;;;;;26.78;42.28;98281.16;8316506;28;20241;-78
2022/07/22 07:35:23;;;;;;;6.70;5.60;;;;;;;27.05;42.05;98277.34;8316458;28;20299;-78
2022/07/22 07:39:33;;;;;;;6.73;5.30;;;;;;;27.35;40.98;98269.75;8315441;28;20258;-78
2022/07/22 07:43:36;;;;;;;8.23;5.57;;;;;;;27.47;40.73;98271.03;8316101;28;20244;-78
2022/07/22 07:47:39;;;;;;;6.23;5.63;;;;;;;27.33;41.70;98261.94;8316233;28;20225;-78
2022/07/22 07:51:43;;;;;;;6.47;5.73;;;;;;;27.62;40.65;98263.22;8315615;28;20279;-77
2022/07/22 07:55:47;;;;;;;9.00;5.90;;;;;;;28.03;39.75;98257.81;8315908;28;20226;-78
2022/07/22 07:59:50;;;;;;;8.23;5.70;;;;;;;28.13;39.04;98260.28;8315167;28;20283;-77
2022/07/22 08:03:54;;;;;;;11.30;6.00;;;;;;;28.42;38.78;98257.78;8315714;28;20234;-76
2022/07/22 08:08:18;;;;;;;8.10;5.23;;;;;;;28.91;37.76;98262.00;8315237;28;20233;-77
2022/07/22 08:12:21;;;;;;;11.07;6.27;;;;;;;28.40;37.70;98249.13;8315180;28;20230;-77
2022/07/22 08:16:24;;;;;;;10.40;6.20;;;;;;;28.71;37.55;98251.00;8314790;28;20240;-77
2022/07/22 08:20:28;;;;;;;7.33;5.33;;;;;;;29.14;37.11;98248.69;8314498;28;20546;-77
2022/07/22 08:24:32;;;;;;;9.80;5.70;;;;;;;29.48;36.43;98252.72;8315120;28;20226;-77
2022/07/22 08:28:35;;;;;;;10.87;5.60;;;;;;;29.49;36.46;98249.03;8314671;28;20236;-78
2022/07/22 08:32:38;;;;;;;7.60;5.70;;;;;;;29.77;35.94;98241.25;8314619;28;20228;-77
2022/07/22 08:36:42;;;;;;;6.73;5.70;;;;;;;30.08;35.32;98237.53;8314486;28;20231;-77
2022/07/22 08:40:47;;;;;;;7.50;5.67;;;;;;;30.24;34.98;98235.69;8314717;28;20232;-78
2022/07/22 08:44:50;;;;;;;8.27;5.30;;;;;;;30.37;34.43;98230.53;8314072;28;20528;-78
2022/07/22 08:48:54;;;;;;;7.13;5.60;;;;;;;30.11;34.57;98223.81;8314502;28;20233;-78
2022/07/22 08:52:59;;;;;;;8.77;5.43;;;;;;;30.39;34.87;98226.66;8314710;28;20553;-79
2022/07/22 08:57:03;;;;;;;7.30;5.53;;;;;;;30.57;33.97;98228.91;8314659;28;20336;-79
2022/07/22 09:01:08;;;;;;;8.73;5.83;;;;;;;31.07;33.12;98212.97;8314005;28;20233;-79
2022/07/22 09:05:13;;;;;;;5.97;5.17;;;;;;;31.36;33.45;98213.78;8320733;28;20235;-78
2022/07/22 09:09:36;;;;;;;7.20;5.20;;;;;;;31.23;32.46;98214.50;8320708;28;20230;-79
2022/07/22 09:13:40;;;;;;;8.93;5.60;;;;;;;31.62;32.45;98205.09;8320411;28;20230;-78
2022/07/22 09:17:43;;;;;;;6.80;4.90;;;;;;;32.02;32.44;98212.53;8320708;28;20242;-78
2022/07/22 09:21:49;;;;;;;10.97;5.43;;;;;;;32.17;31.37;98202.50;8320501;28;20236;-79
2022/07/22 09:25:52;;;;;;;6.60;5.50;;;;;;;32.03;30.26;98196.28;8319982;28;20400;-78
2022/07/22 09:29:57;;;;;;;7.20;5.10;;;;;;;32.28;30.65;98201.94;8320384;28;20611;-78
2022/07/22 09:34:01;;;;;;;9.60;5.20;;;;;;;32.32;30.90;98205.03;8319715;28;20228;-75
2022/07/22 09:38:08;;;;;;;6.70;5.20;;;;;;;32.22;30.21;98200.06;8319810;28;20233;-76
2022/07/22 09:42:11;;;;;;;8.50;5.57;;;;;;;32.08;30.72;98204.56;8319681;28;20325;-76
2022/07/22 09:46:15;;;;;;;6.30;5.40;;;;;;;32.30;30.02;98191.00;8319447;28;20256;-75
2022/07/22 09:50:21;;;;;;;8.37;5.20;;;;;;;32.48;30.44;98195.78;8319201;28;20473;-75
2022/07/22 09:54:24;;;;;;;7.43;5.00;;;;;;;32.45;29.68;98194.34;8319220;28;20297;-75
2022/07/22 09:58:28;;;;;;;10.17;5.40;;;;;;;31.16;30.57;98193.03;8319242;28;20412;-78
2022/07/22 10:02:33;;;;;;;7.07;5.10;;;;;;;32.17;30.80;98188.28;8318604;28;20424;-79
2022/07/22 10:06:39;;;;;;;6.50;5.37;;;;;;;32.92;30.36;98189.06;8318583;28;20231;-78
2022/07/22 10:10:42;;;;;;;9.13;5.30;;;;;;;33.22;29.90;98189.47;8318469;28;20233;-78
2022/07/22 10:14:46;;;;;;;5.43;4.83;;;;;;;33.36;29.30;98181.41;8318183;28;20314;-78
2022/07/22 10:18:51;;;;;;;6.70;4.87;;;;;;;33.61;28.81;98182.41;8318002;28;20234;-77
2022/07/22 10:22:56;;;;;;;8.27;4.50;;;;;;;33.76;28.16;98171.44;8318020;28;20235;-77
2022/07/22 10:27:04;;;;;;;8.17;4.63;;;;;;;33.88;27.32;98168.91;8318399;28;20550;-76
2022/07/22 10:31:19;;;;;;;7.30;4.90;;;;;;;33.92;27.10;98166.63;8318094;28;20513;-77
2022/07/22 10:35:26;;;;;;;8.30;4.40;;;;;;;33.75;26.60;98156.34;8317954;28;20299;-75
2022/07/22 10:39:29;;;;;;;5.33;4.37;;;;;;;33.63;26.30;98152.66;8317776;28;20591;-77
2022/07/22 10:43:33;;;;;;;7.07;4.40;;;;;;;33.92;26.82;98151.31;8317466;28;20232;-77
2022/07/22 10:47:53;;;;;;;6.22;4.47;;;;;;;33.86;26.20;98154.88;8317547;28;20420;-78
2022/07/22 10:52:16;;;;;;;8.15;4.55;;;;;;;34.12;25.96;98145.00;8323967;28;20235;-76
2022/07/22 10:56:25;;;;;;;8.80;4.60;;;;;;;34.60;26.30;98144.53;8317139;28;20547;-77
2022/07/22 11:00:28;;;;;;;6.03;4.15;;;;;;;33.78;26.16;98134.44;8317026;28;20246;-77
2022/07/22 11:04:30;;;;;;;7.45;4.35;;;;;;;34.59;25.97;98127.56;8316769;28;20240;-77
2022/07/22 11:08:35;;;;;;;6.03;4.10;;;;;;;34.78;26.10;98122.28;8316919;28;20236;-78
2022/07/22 11:12:38;;;;;;;8.88;4.53;;;;;;;34.76;25.29;98110.94;8316492;28;20232;-79
2022/07/22 11:16:44;;;;;;;6.07;4.40;;;;;;;35.15;25.38;98111.59;8316802;28;20241;-77
2022/07/22 11:20:49;;;;;;;5.93;4.07;;;;;;;35.09;25.58;98107.09;8315844;28;20506;-74
2022/07/22 11:24:54;;;;;;;7.07;4.03;;;;;;;34.99;25.41;98107.59;8315259;28;20239;-74
2022/07/22 11:28:57;;;;;;;5.22;4.07;;;;;;;35.07;25.47;98107.31;8315831;28;20299;-73
2022/07/22 11:33:00;;;;;;;7.82;4.25;;;;;;;35.11;24.93;98105.00;8315789;28;20239;-73
2022/07/22 11:37:03;;;;;;;8.43;4.50;;;;;;;34.98;25.34;98096.03;8315954;28;20249;-73
2022/07/22 11:41:08;;;;;;;5.68;4.47;;;;;;;34.79;25.09;98092.47;8315452;28;20235;-73
2022/07/22 11:45:11;;;;;;;6.45;4.13;;;;;;;34.87;25.16;98094.06;8315711;28;20425;-73
2022/07/22 11:49:16;;;;;;;10.38;4.82;;;;;;;34.70;25.14;98085.72;8315598;28;20232;-73
2022/07/22 11:53:19;;;;;;;7.53;4.47;;;;;;;34.98;24.88;98081.75;8315485;28;20229;-78
2022/07/22 11:57:23;;;;;;;6.68;4.00;;;;;;;35.16;25.05;98081.75;8315293;28;20264;-77
2022/07/22 12:01:27;;;;;;;6.78;4.45;;;;;;;35.36;24.76;98072.69;8314756;28;20236;-78
2022/07/22 12:05:30;;;;;;;9.45;4.15;;;;;;;35.36;23.74;98068.13;8314395;28;20300;-78
2022/07/22 12:09:36;;;;;;;7.10;4.20;;;;;;;35.41;23.76;98065.59;8314541;28;20263;-78
2022/07/22 12:13:44;;;;;;;6.25;3.83;;;;;;;35.41;24.06;98056.66;8314773;28;20284;-77
2022/07/22 12:17:47;;;;;;;5.38;3.80;;;;;;;35.42;24.06;98053.75;8314200;28;20228;-78
2022/07/22 12:21:55;;;;;;;7.40;3.75;;;;;;;35.41;23.39;98054.81;8346492;28;20240;-77
2022/07/22 12:26:00;;;;;;;4.50;3.80;;;;;;;35.26;23.45;98042.75;8345492;28;20232;-77
2022/07/22 12:30:13;;;;;;;5.60;4.10;;;;;;;35.67;22.80;98033.97;8314571;28;20244;-77
2022/07/22 12:34:16;;;;;;;5.35;4.00;;;;;;;35.67;22.79;98033.16;8314535;28;20240;-77
2022/07/22 12:38:19;;;;;;;7.22;4.50;;;;;;;35.14;22.24;98023.84;8313916;28;20229;-78
2022/07/22 12:42:22;;;;;;;4.43;3.97;;;;;;;35.50;24.00;98022.19;8314569;28;20236;-77
2022/07/22 12:46:26;;;;;;;6.22;4.00;;;;;;;35.59;23.05;98021.63;8314785;28;20238;-78
2022/07/22 12:50:32;;;;;;;6.75;3.97;;;;;;;35.55;22.77;98016.94;8314443;28;20228;-78
2022/07/22 12:54:35;;;;;;;7.88;4.03;;;;;;;35.57;23.17;98014.84;8314518;28;20229;-77
2022/07/22 12:58:40;;;;;;;6.22;4.03;;;;;;;35.10;23.58;98007.31;8314407;28;20520;-77
2022/07/22 13:02:45;;;;;;;5.07;4.00;;;;;;;34.97;22.96;98002.09;8313966;28;20225;-77
2022/07/22 13:06:48;;;;;;;5.85;4.18;;;;;;;34.93;24.13;98007.09;8313886;28;20524;-78
2022/07/22 13:10:51;;;;;;;7.65;3.88;;;;;;;35.15;24.04;98002.09;8314146;28;20235;-77
2022/07/22 13:14:54;;;;;;;6.82;3.92;;;;;;;35.20;23.68;98001.44;8313987;28;20231;-78
2022/07/22 13:18:59;;;;;;;6.95;4.15;;;;;;;35.38;24.14;97995.22;8314312;28;20233;-78
2022/07/22 13:23:02;;;;;;;4.88;4.03;;;;;;;35.38;23.53;97989.84;8314021;28;20233;-76
2022/07/22 13:27:05;;;;;;;5.88;3.95;;;;;;;35.44;23.85;97989.72;8313780;28;20414;-77
2022/07/22 13:31:08;;;;;;;4.72;3.72;;;;;;;35.50;23.38;97985.31;8313516;28;20279;-76
2022/07/22 13:35:13;;;;;;;4.85;4.20;;;;;;;35.55;23.59;97974.69;8313704;28;20658;-77
2022/07/22 13:39:16;;;;;;;8.88;4.07;;;;;;;35.49;23.43;97978.28;8313351;28;20232;-77
2022/07/22 13:43:19;;;;;;;4.03;3.60;;;;;;;35.61;23.14;97971.06;8313197;28;20434;-76
2022/07/22 13:47:22;;;;;;;5.90;3.83;;;;;;;35.27;23.65;97964.50;8313358;28;20228;-76
2022/07/22 13:51:27;;;;;;;5.60;3.70;;;;;;;35.36;23.29;97963.13;8319467;28;20421;-76
2022/07/22 13:55:30;;;;;;;9.10;4.07;;;;;;;35.14;24.08;97959.25;8319393;28;20228;-76
2022/07/22 13:59:33;;;;;;;5.30;3.75;;;;;;;35.27;23.49;97955.59;8319324;28;20243;-75
2022/07/22 14:03:36;;;;;;;10.18;4.07;;;;;;;35.18;23.12;97950.50;8318893;28;20537;-75
2022/07/22 14:07:40;;;;;;;4.97;3.85;;;;;;;35.21;22.72;97955.47;8319258;28;20239;-75
2022/07/22 14:11:43;;;;;;;6.20;3.65;;;;;;;35.20;23.16;97951.09;8319139;28;20232;-75
2022/07/22 14:15:46;;;;;;;7.78;4.03;;;;;;;35.22;22.85;97954.41;8319101;28;20233;-76
2022/07/22 14:19:49;;;;;;;6.00;3.90;;;;;;;35.05;23.67;97951.50;8326249;28;20228;-76
2022/07/22 14:24:01;;;;;;;5.28;3.78;;;;;;;34.99;23.40;97944.31;8318827;28;20233;-76
2022/07/22 14:28:05;;;;;;;6.20;4.05;;;;;;;35.09;23.65;97938.41;8318603;28;20233;-76
2022/07/22 14:32:28;;;;;;;4.72;3.90;;;;;;;35.03;23.63;97936.59;8318187;28;20231;-76
2022/07/22 14:36:31;;;;;;;6.78;3.80;;;;;;;35.00;23.62;97934.38;8318344;28;20225;-77
2022/07/22 14:40:35;;;;;;;7.43;3.92;;;;;;;34.72;23.39;97918.78;8318119;28;20247;-77
2022/07/22 14:44:38;;;;;;;4.72;3.95;;;;;;;34.61;24.09;97929.19;8317620;28;20550;-77
2022/07/22 14:48:41;;;;;;;7.95;3.83;;;;;;;34.44;24.27;97917.41;8317893;28;20221;-77
2022/07/22 14:52:44;;;;;;;6.50;3.85;;;;;;;34.71;24.01;97907.22;8317629;28;20236;-78
2022/07/22 14:56:49;;;;;;;5.05;3.67;;;;;;;34.66;23.88;97905.16;8317073;28;20542;-77
2022/07/22 15:00:51;;;;;;;6.93;3.70;;;;;;;34.68;24.08;97898.78;8316319;28;20236;-79
2022/07/22 15:04:54;;;;;;;4.82;3.92;;;;;;;34.77;23.63;97898.25;8317162;28;20347;-78
2022/07/22 15:08:58;;;;;;;5.68;4.10;;;;;;;34.35;23.62;97900.75;8317402;28;20232;-78
2022/07/22 15:13:02;;;;;;;5.10;4.00;;;;;;;34.39;23.94;97901.94;8317040;28;20241;-78
2022/07/22 15:17:05;;;;;;;7.70;3.88;;;;;;;34.37;24.51;97901.34;8316860;28;20247;-79
2022/07/22 15:21:08;;;;;;;5.15;4.15;;;;;;;34.19;24.39;97890.56;8317050;28;20224;-77
2022/07/22 15:25:11;;;;;;;6.80;4.03;;;;;;;34.12;24.55;97895.16;8316745;28;20399;-78
2022/07/22 15:29:15;;;;;;;5.28;4.13;;;;;;;34.06;23.97;97894.16;8316623;28;20229;-78
2022/07/22 15:33:18;;;;;;;5.18;4.20;;;;;;;33.71;24.06;97901.91;8316320;28;20233;-78
2022/07/22 15:37:29;;;;;;;4.78;3.88;;;;;;;33.72;24.61;97892.81;8316466;28;20225;-77
2022/07/22 15:41:35;;;;;;;5.57;4.15;;;;;;;33.71;23.81;97886.63;8315925;28;20251;-77
2022/07/22 15:45:39;;;;;;;6.07;4.40;;;;;;;33.83;25.25;97887.56;8316365;28;20543;-77
2022/07/22 15:49:42;;;;;;;7.35;3.90;;;;;;;33.73;24.48;97875.66;8316021;28;20230;-76
2022/07/22 15:53:55;;;;;;;4.65;3.63;;;;;;;33.76;25.13;97870.69;8322718;28;20554;-76
2022/07/22 16:02:19;;;;;;;4.10;3.70;;;;;;;33.71;24.63;97858.97;8315305;28;20251;-78
2022/07/22 16:06:22;;;;;;;8.80;4.17;;;;;;;33.44;24.47;97857.25;8315663;28;20224;-80
2022/07/22 16:10:26;;;;;;;4.90;4.10;;;;;;;33.33;24.78;97855.28;8315058;28;20232;-79
2022/07/22 16:14:28;;;;;;;6.40;4.30;;;;;;;32.81;25.42;97849.16;8315542;28;20229;-81
2022/07/22 16:18:33;;;;;;;8.57;4.60;;;;;;;33.17;25.09;97850.41;8315435;28;20231;-79
2022/07/22 16:22:36;;;;;;;11.03;7.50;;;;;;;33.13;25.18;97841.16;8315315;28;20525;-79
2022/07/22 16:26:39;;;;;;;9.33;5.57;;;;;;;33.07;25.13;97837.44;8315378;28;20224;-79
2022/07/22 16:30:41;;;;;;;6.00;4.60;;;;;;;33.10;25.17;97837.03;8315160;28;20235;-79
2022/07/22 16:34:46;;;;;;;8.27;4.23;;;;;;;32.93;25.71;97842.06;8315205;28;20424;-79
2022/07/22 16:38:48;;;;;;;8.80;4.43;;;;;;;32.93;25.72;97837.53;8314853;28;20222;-79
2022/07/22 16:42:51;;;;;;;4.83;4.00;;;;;;;32.84;25.35;97832.63;8315053;28;20244;-80
2022/07/22 16:46:54;;;;;;;5.67;4.10;;;;;;;32.81;25.36;97833.06;8314795;28;20544;-79
2022/07/22 16:51:00;;;;;;;6.47;4.20;;;;;;;32.72;25.60;97832.50;8314762;28;20230;-79
2022/07/22 16:55:04;;;;;;;6.30;4.30;;;;;;;32.61;25.75;97825.94;8314869;28;20232;-79
2022/07/22 16:59:06;;;;;;;9.03;3.73;;;;;;;32.54;25.62;97828.63;8314531;28;20239;-79
2022/07/22 17:03:09;;;;;;;5.37;4.30;;;;;;;32.41;26.23;97828.66;8314514;28;20233;-79
2022/07/22 17:07:13;;;;;;;4.50;4.10;;;;;;;32.27;26.19;97825.22;8314515;28;20230;-79
2022/07/22 17:11:16;;;;;;;6.70;5.10;;;;;;;32.14;26.56;97831.41;8314561;28;20243;-79
2022/07/22 17:15:19;;;;;;;7.90;5.77;;;;;;;31.99;26.99;97838.00;8314418;28;20243;-79
2022/07/22 17:19:22;;;;;;;6.77;5.80;;;;;;;31.80;26.80;97826.31;8314339;28;20236;-79
2022/07/22 17:23:26;;;;;;;5.10;4.60;;;;;;;31.70;27.75;97819.50;8315736;28;20231;-79
2022/07/22 17:27:29;;;;;;;9.00;4.73;;;;;;;31.65;27.71;97823.84;8320282;28;20241;-78
2022/07/22 17:31:32;;;;;;;5.23;4.03;;;;;;;31.56;27.42;97809.84;8320358;28;20234;-79
2022/07/22 17:35:38;;;;;;;6.40;4.23;;;;;;;31.48;27.45;97807.38;8320375;28;20561;-79
2022/07/22 17:39:43;;;;;;;5.40;4.20;;;;;;;31.43;27.67;97805.25;8320346;28;20401;-78
2022/07/22 17:43:46;;;;;;;8.70;4.33;;;;;;;31.41;28.38;97803.84;8319988;28;20238;-78
2022/07/22 17:47:48;;;;;;;10.00;4.43;;;;;;;31.29;28.16;97796.41;8319463;28;20234;-79
2022/07/22 17:51:52;;;;;;;6.07;4.13;;;;;;;31.29;27.75;97798.28;8319877;28;20526;-78
2022/07/22 17:56:00;;;;;;;4.60;3.77;;;;;;;31.34;27.98;97796.63;8319655;28;20299;-78
2022/07/22 18:00:23;;;;;;;4.03;3.70;;;;;;;31.26;28.04;97785.31;8319419;28;20232;-79
2022/07/22 18:04:26;;;;;;;5.50;4.00;;;;;;;31.18;28.22;97797.84;8319266;28;20240;-79
2022/07/22 18:08:29;;;;;;;5.73;4.30;;;;;;;31.10;28.52;97802.56;8319417;28;20432;-79
2022/07/22 18:12:33;;;;;;;4.77;4.20;;;;;;;31.03;28.72;97807.91;8319390;28;20230;-79
2022/07/22 18:16:37;;;;;;;7.40;4.43;;;;;;;30.93;28.91;97805.63;8319053;28;20291;-79
2022/07/22 18:20:40;;;;;;;6.60;4.43;;;;;;;30.85;29.16;97800.44;8319050;28;20427;-78
2022/07/22 18:24:43;;;;;;;5.70;4.33;;;;;;;30.77;29.26;97806.78;8318725;28;20233;-79
2022/07/22 18:28:47;;;;;;;4.90;4.17;;;;;;;30.68;29.31;97805.31;8318800;28;20237;-79
2022/07/22 18:32:50;;;;;;;8.20;4.57;;;;;;;30.60;29.27;97803.66;8325913;28;20237;-79
2022/07/22 18:36:53;;;;;;;7.57;4.00;;;;;;;30.55;29.21;97791.91;8318722;28;20237;-78
2022/07/22 18:40:55;;;;;;;6.27;4.33;;;;;;;30.43;29.30;97798.84;8318714;28;20234;-79
2022/07/22 18:44:59;;;;;;;7.07;4.00;;;;;;;30.39;29.31;97809.94;8318556;28;20237;-78
2022/07/22 18:49:02;;;;;;;6.07;4.30;;;;;;;30.28;29.42;97810.47;8318088;28;20301;-78
2022/07/22 18:53:06;;;;;;;6.00;4.07;;;;;;;30.18;29.96;97818.84;8318020;28;20540;-79
2022/07/22 18:57:08;;;;;;;5.63;3.77;;;;;;;30.10;29.82;97826.16;8317779;28;20234;-79
2022/07/22 19:01:13;;;;;;;8.33;4.47;;;;;;;30.01;29.92;97829.00;8317768;28;20429;-79
2022/07/22 19:05:15;;;;;;;6.50;4.47;;;;;;;29.88;30.17;97822.75;8317799;28;20241;-79
2022/07/22 19:09:18;;;;;;;7.43;4.57;;;;;;;29.78;30.44;97828.44;8317673;28;20229;-79
2022/07/22 19:13:28;;;;;;;10.93;4.90;;;;;;;29.70;30.74;97836.53;8317430;28;20266;-79